Time;durP1;ratioP1;P1;durP2;ratioP2;P2;SDS_P1;SDS_P2;PMS_P1;PMS_P2;Temp;Humidity;BMP_temperature;BMP_pressure;BME280_temperature;BME280_humidity;BME280_pressure;Samples;Min_cycle;Max_cycle;Signal;HPM_P1;HPM_P2
2023/01/10 00:00:34;;;;;;;25.35;4.35;;;4.80;99.90;;;;;;4994023;28;20053;-66
2023/01/10 00:03:00;;;;;;;33.42;5.05;;;4.70;99.90;;;;;;5008736;28;20179;-65
2023/01/10 00:05:26;;;;;;;39.88;4.88;;;4.70;99.90;;;;;;4973046;28;21415;-65
2023/01/10 00:07:52;;;;;;;24.95;5.07;;;4.70;99.90;;;;;;4988962;28;20046;-65
2023/01/10 00:10:17;;;;;;;39.08;5.25;;;4.60;99.90;;;;;;4986749;28;20125;-65
2023/01/10 00:15:27;;;;;;;45.15;5.63;;;4.70;99.90;;;;;;4988108;28;20084;-66
2023/01/10 00:17:53;;;;;;;34.80;5.80;;;4.90;99.90;;;;;;4989258;28;20536;-66
2023/01/10 00:20:18;;;;;;;38.92;5.50;;;5.10;99.90;;;;;;5002736;28;20045;-65
2023/01/10 00:22:44;;;;;;;36.95;7.00;;;5.30;99.90;;;;;;5006388;28;20477;-66
2023/01/10 00:25:10;;;;;;;33.80;5.45;;;5.30;99.90;;;;;;4988765;28;20487;-68
2023/01/10 00:27:36;;;;;;;40.30;5.50;;;5.40;99.90;;;;;;4989228;28;20045;-67
2023/01/10 00:30:08;;;;;;;25.60;4.60;;;5.60;99.90;;;;;;4983939;28;20038;-69
2023/01/10 00:32:34;;;;;;;32.08;6.30;;;5.60;99.90;;;;;;4989263;28;20046;-67
2023/01/10 00:35:00;;;;;;;32.58;5.00;;;5.80;99.90;;;;;;4989527;28;20156;-70
2023/01/10 00:37:26;;;;;;;27.83;4.40;;;5.70;99.90;;;;;;4991090;28;20038;-68
2023/01/10 00:39:51;;;;;;;34.78;4.45;;;6.00;99.90;;;;;;4985697;28;20068;-67
2023/01/10 00:45:01;;;;;;;22.88;4.75;;;5.90;99.90;;;;;;4987927;28;20377;-68
2023/01/10 00:47:27;;;;;;;38.92;4.78;;;6.00;99.90;;;;;;4991747;28;20496;-65
2023/01/10 00:49:52;;;;;;;38.05;4.57;;;6.00;99.90;;;;;;5002110;28;20038;-66
2023/01/10 00:52:18;;;;;;;35.17;4.82;;;6.00;99.90;;;;;;4988031;28;20045;-65
2023/01/10 00:54:43;;;;;;;30.42;4.55;;;5.90;99.90;;;;;;4989181;28;20396;-66
2023/01/10 00:57:09;;;;;;;35.00;5.13;;;6.00;99.90;;;;;;4991252;28;20728;-65
2023/01/10 00:59:34;;;;;;;32.58;5.40;;;6.00;99.90;;;;;;4984208;28;20193;-64
2023/01/10 01:02:00;;;;;;;20.75;4.47;;;5.90;99.90;;;;;;4988085;28;20048;-65
2023/01/10 01:04:26;;;;;;;35.92;5.38;;;5.90;99.90;;;;;;4988393;28;20050;-64
2023/01/10 01:06:51;;;;;;;35.85;5.40;;;5.80;99.90;;;;;;4982867;28;20038;-67
2023/01/10 01:09:17;;;;;;;26.38;4.20;;;5.90;99.90;;;;;;4986897;28;20041;-66
2023/01/10 01:11:42;;;;;;;26.23;4.40;;;5.80;99.90;;;;;;5000009;28;20045;-67
2023/01/10 01:14:08;;;;;;;29.38;4.90;;;5.80;99.90;;;;;;5000911;28;20042;-66
2023/01/10 01:16:34;;;;;;;29.42;4.63;;;5.80;99.90;;;;;;4987420;28;20065;-66
2023/01/10 01:18:59;;;;;;;34.38;4.53;;;5.80;99.90;;;;;;4984402;28;20499;-65
2023/01/10 01:21:27;;;;;;;28.77;5.28;;;5.80;99.90;;;;;;4999680;28;20088;-65
2023/01/10 01:23:55;;;;;;;25.40;5.03;;;5.70;99.90;;;;;;4986116;28;20052;-67
2023/01/10 01:26:24;;;;;;;33.20;4.72;;;5.60;99.90;;;;;;5007255;28;20030;-66
2023/01/10 01:28:50;;;;;;;28.00;4.93;;;5.50;99.90;;;;;;4982298;28;20080;-65
2023/01/10 01:31:16;;;;;;;23.83;4.03;;;5.60;99.90;;;;;;4982794;28;20128;-65
2023/01/10 01:33:41;;;;;;;27.55;4.35;;;5.40;99.90;;;;;;4983715;28;20065;-65
2023/01/10 01:36:09;;;;;;;28.75;4.20;;;5.50;99.90;;;;;;5001864;28;20029;-65
2023/01/10 01:38:36;;;;;;;32.00;4.57;;;5.40;99.90;;;;;;4982770;28;20493;-65
2023/01/10 01:41:02;;;;;;;28.95;4.72;;;5.50;99.90;;;;;;4984158;28;20582;-66
2023/01/10 01:43:33;;;;;;;31.60;5.30;;;5.40;99.90;;;;;;4984116;28;20128;-67
2023/01/10 01:46:02;;;;;;;29.90;4.70;;;5.40;99.90;;;;;;4986094;28;20042;-66
2023/01/10 01:48:38;;;;;;;29.27;4.38;;;5.40;99.90;;;;;;5003140;28;20087;-66
2023/01/10 01:51:14;;;;;;;32.72;4.85;;;5.50;99.90;;;;;;4999329;28;20562;-67
2023/01/10 01:53:48;;;;;;;34.40;4.20;;;5.50;99.90;;;;;;4987278;28;20045;-67
2023/01/10 01:56:24;;;;;;;30.45;3.92;;;5.50;99.90;;;;;;4984417;28;20124;-66
2023/01/10 01:58:56;;;;;;;25.98;4.10;;;5.60;99.90;;;;;;4982942;28;20037;-65
2023/01/10 02:01:21;;;;;;;31.95;4.13;;;5.60;99.90;;;;;;4984891;28;20072;-65
2023/01/10 02:03:52;;;;;;;20.73;4.07;;;5.60;99.90;;;;;;4996181;28;20539;-66
2023/01/10 02:06:19;;;;;;;27.70;4.38;;;5.50;99.90;;;;;;4986016;28;20046;-65
2023/01/10 02:08:54;;;;;;;31.02;4.60;;;5.50;99.90;;;;;;4967463;28;20396;-69
2023/01/10 02:11:19;;;;;;;34.92;4.15;;;5.50;99.90;;;;;;4984103;28;20552;-67
2023/01/10 02:13:46;;;;;;;29.77;4.28;;;5.40;99.90;;;;;;4986220;28;20041;-66
2023/01/10 02:16:12;;;;;;;26.15;4.18;;;5.40;99.90;;;;;;4982926;28;20437;-64
2023/01/10 02:18:41;;;;;;;26.42;4.65;;;5.40;99.90;;;;;;4982276;28;20133;-64
2023/01/10 02:21:32;;;;;;;27.67;4.65;;;5.30;99.90;;;;;;4984645;28;20041;-66
2023/01/10 02:24:16;;;;;;;29.10;4.85;;;5.30;99.90;;;;;;4985021;28;20077;-66
2023/01/10 02:26:57;;;;;;;26.10;5.20;;;5.20;99.90;;;;;;4987186;28;20532;-65
2023/01/10 02:29:38;;;;;;;25.67;5.50;;;5.20;99.90;;;;;;4985719;28;20042;-66
2023/01/10 02:32:06;;;;;;;29.98;4.53;;;5.10;99.90;;;;;;4983821;28;20473;-66
2023/01/10 02:34:55;;;;;;;30.45;5.28;;;5.30;99.90;;;;;;4982928;28;21638;-67
2023/01/10 02:37:43;;;;;;;29.42;4.88;;;5.20;99.90;;;;;;4982481;28;20042;-66
2023/01/10 02:40:12;;;;;;;24.50;4.80;;;5.30;99.90;;;;;;4985605;28;20523;-65
2023/01/10 02:42:56;;;;;;;23.25;4.15;;;5.20;99.90;;;;;;4986211;28;20038;-67
2023/01/10 02:45:30;;;;;;;36.13;5.45;;;5.30;99.90;;;;;;4984553;28;20330;-67
2023/01/10 02:47:57;;;;;;;28.15;5.55;;;5.30;99.90;;;;;;4985073;28;20128;-66
2023/01/10 02:50:34;;;;;;;23.17;4.38;;;5.40;99.90;;;;;;4985339;28;20136;-68
2023/01/10 02:53:05;;;;;;;30.02;4.75;;;5.40;99.90;;;;;;5002930;28;20087;-66
2023/01/10 02:55:40;;;;;;;29.10;4.25;;;5.40;99.90;;;;;;4988727;28;20124;-68
2023/01/10 02:58:38;;;;;;;22.98;4.03;;;5.50;99.90;;;;;;4982687;28;20042;-66
2023/01/10 03:01:31;;;;;;;35.22;4.80;;;5.40;99.90;;;;;;4998105;28;20399;-67
2023/01/10 03:04:25;;;;;;;25.00;4.40;;;5.50;99.90;;;;;;4982984;28;20050;-66
2023/01/10 03:07:17;;;;;;;29.10;3.90;;;5.60;99.90;;;;;;4984137;28;20108;-66
2023/01/10 03:09:57;;;;;;;36.03;5.07;;;5.60;99.90;;;;;;4985312;28;20045;-67
2023/01/10 03:12:32;;;;;;;31.90;5.40;;;5.50;99.90;;;;;;4985718;28;20681;-68
2023/01/10 03:14:59;;;;;;;33.03;4.65;;;5.70;99.90;;;;;;4987762;28;20038;-67
2023/01/10 03:17:26;;;;;;;25.75;4.45;;;5.70;99.90;;;;;;4986578;28;20397;-67
2023/01/10 03:19:57;;;;;;;31.30;4.15;;;5.70;99.90;;;;;;4983228;28;20037;-67
2023/01/10 03:22:25;;;;;;;29.95;4.43;;;5.70;99.90;;;;;;4984332;28;20042;-68
2023/01/10 03:24:54;;;;;;;33.42;4.90;;;5.70;99.90;;;;;;4982266;28;20053;-66
2023/01/10 03:28:18;;;;;;;32.30;4.72;;;5.60;99.90;;;;;;4984476;28;20134;-67
2023/01/10 03:30:55;;;;;;;30.77;4.35;;;5.60;99.90;;;;;;4926094;29;20043;-66
2023/01/10 03:33:25;;;;;;;30.70;4.40;;;5.60;99.90;;;;;;4936959;28;20169;-70
2023/01/10 03:36:07;;;;;;;32.80;4.65;;;5.80;99.90;;;;;;4957542;28;20534;-65
2023/01/10 03:39:03;;;;;;;29.95;4.00;;;5.70;99.90;;;;;;4983074;28;20084;-68
2023/01/10 03:41:53;;;;;;;30.90;4.10;;;5.90;99.90;;;;;;4999853;28;20421;-64
2023/01/10 03:44:43;;;;;;;27.67;4.57;;;5.90;99.90;;;;;;4982713;28;20574;-64
2023/01/10 03:47:12;;;;;;;29.13;3.80;;;5.80;99.90;;;;;;4981264;28;20046;-66
2023/01/10 03:49:40;;;;;;;30.92;4.40;;;5.70;99.90;;;;;;4980367;28;20048;-65
2023/01/10 03:52:09;;;;;;;32.28;4.43;;;5.90;99.90;;;;;;4983728;28;20093;-65
2023/01/10 03:54:35;;;;;;;30.33;3.88;;;6.00;99.90;;;;;;4998493;28;20045;-65
2023/01/10 03:57:00;;;;;;;24.50;4.82;;;5.80;99.90;;;;;;5003081;28;20049;-64
2023/01/10 03:59:27;;;;;;;35.10;4.30;;;5.80;99.90;;;;;;5001631;28;20037;-64
2023/01/10 04:01:54;;;;;;;37.80;4.47;;;5.90;99.90;;;;;;4982849;28;20423;-65
2023/01/10 04:04:20;;;;;;;27.35;4.10;;;5.90;99.90;;;;;;5003087;28;20050;-66
2023/01/10 04:06:45;;;;;;;31.83;4.20;;;5.80;99.90;;;;;;4986277;28;20068;-68
2023/01/10 04:09:11;;;;;;;35.58;4.53;;;6.00;99.90;;;;;;4983220;28;20959;-66
2023/01/10 04:11:37;;;;;;;36.20;4.70;;;5.90;99.90;;;;;;4983947;28;20065;-65
2023/01/10 04:14:03;;;;;;;30.85;4.47;;;6.00;99.90;;;;;;4985094;28;20500;-64
2023/01/10 04:16:28;;;;;;;36.38;4.55;;;5.90;99.90;;;;;;4984597;28;20050;-66
2023/01/10 04:18:54;;;;;;;29.70;4.45;;;5.90;99.90;;;;;;5005584;28;20030;-67
2023/01/10 04:21:19;;;;;;;34.97;4.80;;;5.90;99.90;;;;;;4986399;28;20044;-67
2023/01/10 04:23:45;;;;;;;26.67;4.13;;;6.10;99.90;;;;;;4987791;28;20049;-66
2023/01/10 04:26:11;;;;;;;24.88;3.97;;;5.80;99.90;;;;;;4986316;28;20103;-67
2023/01/10 04:28:37;;;;;;;37.42;4.82;;;5.90;99.90;;;;;;4983902;28;20432;-66
2023/01/10 04:31:03;;;;;;;36.30;4.85;;;5.90;99.90;;;;;;5000455;28;20072;-66
2023/01/10 04:33:28;;;;;;;28.63;4.15;;;5.70;99.90;;;;;;4983524;28;20050;-67
2023/01/10 04:35:54;;;;;;;34.50;4.88;;;5.90;99.90;;;;;;4987497;28;20034;-65
2023/01/10 04:38:20;;;;;;;36.20;4.53;;;5.70;99.90;;;;;;5002647;28;20085;-66
2023/01/10 04:40:52;;;;;;;32.22;5.03;;;5.80;99.90;;;;;;4988516;28;20046;-66
2023/01/10 04:43:18;;;;;;;40.83;5.63;;;5.80;99.90;;;;;;5000653;28;20040;-67
2023/01/10 04:45:44;;;;;;;29.48;4.63;;;5.50;99.90;;;;;;4986997;28;20034;-67
2023/01/10 04:48:09;;;;;;;31.15;4.85;;;5.70;99.90;;;;;;4987269;28;20042;-67
2023/01/10 04:50:35;;;;;;;37.80;4.40;;;5.60;99.90;;;;;;4985236;28;20050;-65
2023/01/10 04:53:00;;;;;;;28.35;4.88;;;5.60;99.90;;;;;;4985579;28;20194;-67
2023/01/10 04:55:26;;;;;;;35.30;5.47;;;5.70;99.90;;;;;;5001351;28;20037;-67
2023/01/10 04:57:52;;;;;;;35.78;4.65;;;5.70;99.90;;;;;;4985163;28;20395;-67
2023/01/10 05:00:17;;;;;;;37.10;4.45;;;5.60;99.90;;;;;;4984226;28;20088;-66
2023/01/10 05:02:43;;;;;;;39.95;5.63;;;5.80;99.90;;;;;;4986182;28;20042;-65
2023/01/10 05:05:12;;;;;;;19.55;3.95;;;5.90;99.90;;;;;;4985718;28;20514;-66
2023/01/10 05:07:39;;;;;;;41.83;4.85;;;5.90;99.90;;;;;;5001551;28;20420;-67
2023/01/10 05:10:06;;;;;;;30.10;5.03;;;5.90;99.90;;;;;;4987991;28;20041;-68
2023/01/10 05:12:32;;;;;;;41.65;4.60;;;5.80;99.90;;;;;;4984504;28;20083;-65
2023/01/10 05:14:57;;;;;;;32.00;4.93;;;5.90;99.90;;;;;;4986246;28;20469;-66
2023/01/10 05:17:23;;;;;;;43.88;4.93;;;6.00;99.90;;;;;;4986009;28;20037;-67
2023/01/10 05:19:49;;;;;;;37.28;5.32;;;6.00;99.90;;;;;;4983787;28;20965;-67
2023/01/10 05:22:14;;;;;;;40.15;4.85;;;5.90;99.90;;;;;;4982112;28;20041;-66
2023/01/10 05:24:40;;;;;;;31.75;4.95;;;6.00;99.90;;;;;;4988478;28;20041;-65
2023/01/10 05:27:06;;;;;;;47.35;5.03;;;6.10;99.90;;;;;;4985040;28;20054;-67
2023/01/10 05:29:33;;;;;;;35.15;5.32;;;6.10;99.90;;;;;;4987857;28;20038;-66
2023/01/10 05:31:58;;;;;;;31.48;4.97;;;6.10;99.90;;;;;;4984080;28;20053;-65
2023/01/10 05:34:24;;;;;;;31.83;4.82;;;6.00;99.90;;;;;;4986575;28;20034;-66
2023/01/10 05:36:49;;;;;;;32.67;4.68;;;5.90;99.90;;;;;;4985770;28;20445;-67
2023/01/10 05:39:15;;;;;;;38.33;5.30;;;5.80;99.90;;;;;;4986948;28;20532;-66
2023/01/10 05:41:41;;;;;;;46.25;5.20;;;6.00;99.90;;;;;;4987418;28;20041;-68
2023/01/10 05:44:07;;;;;;;31.75;5.07;;;5.80;99.90;;;;;;4998664;28;20061;-66
2023/01/10 05:46:33;;;;;;;32.55;5.13;;;5.80;99.90;;;;;;4984444;28;20077;-66
2023/01/10 05:48:59;;;;;;;42.58;4.85;;;5.70;99.90;;;;;;4983137;28;20069;-65
2023/01/10 05:51:25;;;;;;;35.75;5.32;;;5.70;99.90;;;;;;4984990;28;20095;-64
2023/01/10 05:53:50;;;;;;;34.55;5.47;;;5.70;99.90;;;;;;4984684;28;20038;-66
2023/01/10 05:56:16;;;;;;;35.53;5.80;;;5.70;99.90;;;;;;4987617;28;20061;-66
2023/01/10 05:58:42;;;;;;;35.53;5.47;;;5.50;99.90;;;;;;4982501;28;20057;-66
2023/01/10 06:01:08;;;;;;;34.08;4.90;;;5.50;99.90;;;;;;4984262;28;20488;-65
2023/01/10 06:03:34;;;;;;;40.38;5.72;;;5.40;99.90;;;;;;4982634;28;20038;-66
2023/01/10 06:06:02;;;;;;;40.00;4.82;;;5.50;99.90;;;;;;4985052;28;20504;-66
2023/01/10 06:08:28;;;;;;;39.22;5.00;;;5.40;99.90;;;;;;4983563;28;20052;-66
2023/01/10 06:10:53;;;;;;;42.55;5.47;;;5.30;99.90;;;;;;4988295;28;20058;-66
2023/01/10 06:13:19;;;;;;;38.17;4.80;;;5.10;99.90;;;;;;5003323;28;20037;-65
2023/01/10 06:15:44;;;;;;;30.20;5.60;;;5.20;99.90;;;;;;4985406;28;20096;-65
2023/01/10 06:18:10;;;;;;;41.33;5.47;;;5.30;99.90;;;;;;4982353;28;20487;-65
2023/01/10 06:20:36;;;;;;;29.60;4.68;;;5.00;99.90;;;;;;5003413;28;20057;-66
2023/01/10 06:23:03;;;;;;;40.63;4.95;;;5.00;99.90;;;;;;4983623;28;20543;-67
2023/01/10 06:25:30;;;;;;;26.27;4.82;;;5.10;99.90;;;;;;4984779;28;20103;-65
2023/01/10 06:27:56;;;;;;;32.38;4.68;;;5.10;99.90;;;;;;4985039;28;20056;-66
2023/01/10 06:30:21;;;;;;;36.00;4.95;;;4.90;99.90;;;;;;4997439;28;20045;-67
2023/01/10 06:32:47;;;;;;;35.75;5.25;;;5.10;99.90;;;;;;4986002;28;20042;-67
2023/01/10 06:35:12;;;;;;;27.55;4.75;;;4.90;99.90;;;;;;4982793;28;20038;-66
2023/01/10 06:37:38;;;;;;;42.92;5.22;;;5.00;99.90;;;;;;4981981;28;20038;-66
2023/01/10 06:40:04;;;;;;;35.63;5.72;;;4.90;99.90;;;;;;4984541;28;20047;-65
2023/01/10 06:42:30;;;;;;;33.78;5.00;;;5.00;99.90;;;;;;4984654;28;20044;-66
2023/01/10 06:44:56;;;;;;;36.50;5.68;;;5.00;99.90;;;;;;5003605;28;20479;-66
2023/01/10 06:47:21;;;;;;;38.88;5.80;;;4.90;99.90;;;;;;4986802;28;20041;-67
2023/01/10 06:49:47;;;;;;;36.92;5.25;;;5.00;99.90;;;;;;4991070;28;20552;-66
2023/01/10 06:52:12;;;;;;;33.35;5.05;;;4.80;99.90;;;;;;4983141;28;20053;-70
2023/01/10 06:54:40;;;;;;;34.25;5.20;;;4.90;99.90;;;;;;4986050;28;20038;-66
2023/01/10 06:57:06;;;;;;;34.80;5.13;;;4.90;99.90;;;;;;4985556;28;20461;-65
2023/01/10 06:59:32;;;;;;;38.58;6.03;;;4.80;99.90;;;;;;4985597;28;20037;-70
2023/01/10 07:01:57;;;;;;;39.00;5.55;;;5.00;99.90;;;;;;4983518;28;20048;-66
2023/01/10 07:04:23;;;;;;;43.67;6.10;;;4.90;99.90;;;;;;4985555;28;20310;-68
2023/01/10 07:06:48;;;;;;;41.17;5.60;;;4.90;99.90;;;;;;4982027;28;21194;-65
2023/01/10 07:09:14;;;;;;;37.90;5.88;;;4.80;99.90;;;;;;4985356;28;20380;-67
2023/01/10 07:11:40;;;;;;;31.38;4.72;;;4.90;99.90;;;;;;4984522;28;20054;-67
2023/01/10 07:14:06;;;;;;;39.20;4.72;;;5.00;99.90;;;;;;4967663;28;20116;-67
2023/01/10 07:16:31;;;;;;;37.28;5.93;;;4.80;99.90;;;;;;4981084;28;20076;-66
2023/01/10 07:18:58;;;;;;;31.25;5.13;;;4.80;99.90;;;;;;4983410;28;20037;-68
2023/01/10 07:21:24;;;;;;;40.08;5.75;;;4.70;99.90;;;;;;4983747;28;20050;-66
2023/01/10 07:23:49;;;;;;;35.83;5.28;;;4.90;99.90;;;;;;4985545;28;20107;-67
2023/01/10 07:26:17;;;;;;;43.80;6.22;;;4.80;99.90;;;;;;4990126;28;20053;-67
2023/01/10 07:28:44;;;;;;;48.03;6.22;;;5.10;99.90;;;;;;5006922;28;20054;-66
2023/01/10 07:31:12;;;;;;;39.92;5.30;;;5.10;99.90;;;;;;4989060;28;20493;-66
2023/01/10 07:33:38;;;;;;;41.72;5.60;;;4.90;99.90;;;;;;4984067;28;20041;-67
2023/01/10 07:36:04;;;;;;;48.75;5.60;;;5.20;99.90;;;;;;5005266;28;20037;-68
2023/01/10 07:38:29;;;;;;;51.63;5.80;;;5.00;99.90;;;;;;4986329;28;20095;-66
2023/01/10 07:40:55;;;;;;;35.55;5.75;;;5.00;99.90;;;;;;4984120;28;20045;-66
2023/01/10 07:43:21;;;;;;;33.88;4.90;;;5.20;99.90;;;;;;4980532;28;20038;-67
2023/01/10 07:45:46;;;;;;;38.25;6.03;;;5.00;99.90;;;;;;4989975;28;20049;-67
2023/01/10 07:48:12;;;;;;;41.85;5.63;;;5.20;99.90;;;;;;4991272;28;20038;-66
2023/01/10 07:50:38;;;;;;;37.03;6.22;;;4.90;99.90;;;;;;4991644;28;20046;-66
2023/01/10 07:53:06;;;;;;;42.08;5.80;;;4.90;99.90;;;;;;4990559;28;20033;-66
2023/01/10 07:55:33;;;;;;;38.65;5.50;;;5.00;99.90;;;;;;4989330;28;20046;-67
2023/01/10 07:57:59;;;;;;;45.15;5.53;;;5.10;99.90;;;;;;5009104;28;20034;-66
2023/01/10 08:00:25;;;;;;;41.58;5.47;;;5.00;99.90;;;;;;4992687;28;20046;-66
2023/01/10 08:02:55;;;;;;;43.58;6.07;;;5.00;99.90;;;;;;4987759;28;20045;-67
2023/01/10 08:05:22;;;;;;;44.33;5.63;;;5.00;99.90;;;;;;4992404;28;20046;-64
2023/01/10 08:07:47;;;;;;;39.50;5.38;;;5.00;99.90;;;;;;4990815;28;20052;-66
2023/01/10 08:10:14;;;;;;;40.88;5.80;;;4.70;99.90;;;;;;4990992;28;20050;-65
2023/01/10 08:12:39;;;;;;;45.97;5.82;;;4.70;99.90;;;;;;4988121;28;20095;-65
2023/01/10 08:15:05;;;;;;;43.03;6.32;;;4.80;99.90;;;;;;4994784;28;20409;-65
2023/01/10 08:17:35;;;;;;;50.40;6.45;;;4.80;99.90;;;;;;5007936;28;20034;-65
2023/01/10 08:20:00;;;;;;;46.92;5.95;;;4.70;99.90;;;;;;4990084;28;20100;-65
2023/01/10 08:22:26;;;;;;;37.03;6.10;;;4.60;99.90;;;;;;4991079;28;20073;-67
2023/01/10 08:24:52;;;;;;;47.60;6.30;;;4.80;99.90;;;;;;5006354;28;20083;-66
2023/01/10 08:27:17;;;;;;;45.65;6.32;;;4.70;99.90;;;;;;5007133;28;20116;-66
2023/01/10 08:29:43;;;;;;;42.03;6.70;;;4.70;99.90;;;;;;4988191;28;20038;-66
2023/01/10 08:32:10;;;;;;;45.92;6.38;;;5.00;99.90;;;;;;4984478;28;20176;-66
2023/01/10 08:34:35;;;;;;;49.85;7.05;;;5.10;99.90;;;;;;4986362;28;20080;-67
2023/01/10 08:37:01;;;;;;;50.08;6.60;;;5.00;99.90;;;;;;4992527;28;20447;-67
2023/01/10 08:39:29;;;;;;;42.17;6.60;;;5.30;99.90;;;;;;4986036;28;20378;-65
2023/01/10 08:41:55;;;;;;;43.67;7.00;;;5.30;99.90;;;;;;4986240;28;20145;-67
2023/01/10 08:44:21;;;;;;;52.90;6.93;;;5.10;99.90;;;;;;4983077;28;20180;-66
2023/01/10 08:46:46;;;;;;;39.53;6.60;;;5.40;99.90;;;;;;4988346;28;20134;-67
2023/01/10 08:49:12;;;;;;;39.00;6.05;;;5.20;99.90;;;;;;4983276;28;20480;-65
2023/01/10 08:51:39;;;;;;;40.40;6.10;;;5.50;99.90;;;;;;4982988;28;20053;-66
2023/01/10 08:54:05;;;;;;;47.22;6.43;;;5.50;99.90;;;;;;4987404;28;20038;-68
2023/01/10 08:56:30;;;;;;;43.65;6.35;;;5.40;99.90;;;;;;4985854;28;20177;-68
2023/01/10 08:58:56;;;;;;;49.85;6.88;;;5.60;99.90;;;;;;4988933;28;20060;-66
2023/01/10 09:01:21;;;;;;;45.85;7.00;;;5.80;99.90;;;;;;4989028;28;20108;-69
2023/01/10 09:03:47;;;;;;;36.58;6.30;;;5.70;99.90;;;;;;5003003;28;20038;-67
2023/01/10 09:06:13;;;;;;;44.20;8.40;;;5.80;99.90;;;;;;4986300;28;20424;-67
2023/01/10 09:08:38;;;;;;;51.10;8.00;;;6.00;99.90;;;;;;4990418;28;20034;-70
2023/01/10 09:11:05;;;;;;;43.28;6.63;;;5.80;99.90;;;;;;4989384;28;20069;-68
2023/01/10 09:13:31;;;;;;;44.28;6.95;;;6.10;99.90;;;;;;4987163;28;20038;-70
2023/01/10 09:15:58;;;;;;;43.53;7.28;;;6.00;99.90;;;;;;4986626;28;20052;-71
2023/01/10 09:18:24;;;;;;;51.67;15.30;;;6.00;99.90;;;;;;4986834;28;20117;-69
2023/01/10 09:20:51;;;;;;;44.28;7.63;;;6.00;99.90;;;;;;4987249;28;20268;-68
2023/01/10 09:23:19;;;;;;;49.97;8.57;;;6.10;99.90;;;;;;4988160;28;20058;-68
2023/01/10 09:25:46;;;;;;;53.50;7.63;;;6.00;99.90;;;;;;4990803;28;20172;-69
2023/01/10 09:28:13;;;;;;;47.78;7.63;;;6.30;99.90;;;;;;5012518;28;20052;-68
2023/01/10 09:30:38;;;;;;;40.05;7.13;;;6.30;99.90;;;;;;4981741;28;20053;-70
2023/01/10 09:33:05;;;;;;;43.13;8.07;;;6.20;99.90;;;;;;4991404;28;20029;-70
2023/01/10 09:35:33;;;;;;;45.92;7.57;;;6.50;99.90;;;;;;4990883;28;20053;-68
2023/01/10 09:38:00;;;;;;;42.60;7.55;;;6.60;99.90;;;;;;4999256;28;20041;-69
2023/01/10 09:41:00;;;;;;;44.83;7.05;;;6.60;99.90;;;;;;5004217;28;20088;-68
2023/01/10 09:43:56;;;;;;;49.30;7.53;;;6.60;99.90;;;;;;4988936;28;20413;-69
2023/01/10 09:46:35;;;;;;;41.60;6.53;;;6.50;99.90;;;;;;4987040;28;20037;-69
2023/01/10 09:49:15;;;;;;;54.03;7.57;;;6.60;99.90;;;;;;4986838;28;20034;-69
2023/01/10 09:51:43;;;;;;;39.25;7.18;;;6.80;99.90;;;;;;4989729;28;20188;-69
2023/01/10 09:54:23;;;;;;;50.63;7.70;;;6.80;99.90;;;;;;5006488;28;20033;-71
2023/01/10 09:56:48;;;;;;;50.13;7.95;;;6.70;99.90;;;;;;4996325;28;20068;-68
2023/01/10 09:59:18;;;;;;;48.50;8.07;;;6.90;99.90;;;;;;4989872;28;20139;-69
2023/01/10 10:01:46;;;;;;;42.53;7.75;;;6.90;99.90;;;;;;4998489;28;20128;-71
2023/01/10 10:04:23;;;;;;;50.80;8.57;;;7.00;99.90;;;;;;5001113;28;20402;-69
2023/01/10 10:06:50;;;;;;;50.90;9.80;;;7.00;99.90;;;;;;5009083;28;20045;-72
2023/01/10 10:09:26;;;;;;;55.95;9.07;;;7.00;99.90;;;;;;4972885;28;20524;-71
2023/01/10 10:12:42;;;;;;;50.80;9.98;;;7.10;99.90;;;;;;4990091;28;20046;-68
2023/01/10 10:15:45;;;;;;;50.33;10.25;;;6.90;99.90;;;;;;4957011;28;20060;-71
2023/01/10 10:18:29;;;;;;;51.30;10.60;;;7.00;99.90;;;;;;5012152;28;20026;-70
2023/01/10 10:21:09;;;;;;;47.65;11.52;;;7.00;99.90;;;;;;4989658;28;20669;-69
2023/01/10 10:24:01;;;;;;;50.83;11.45;;;7.10;99.90;;;;;;4989811;28;20042;-69
2023/01/10 10:26:31;;;;;;;58.05;12.48;;;7.00;99.90;;;;;;4986724;28;20488;-72
2023/01/10 10:29:10;;;;;;;54.65;11.77;;;7.10;99.90;;;;;;4992670;28;20053;-70
2023/01/10 10:32:07;;;;;;;50.15;12.32;;;7.10;99.90;;;;;;5001627;28;20042;-68
2023/01/10 10:34:44;;;;;;;51.30;13.30;;;7.00;99.90;;;;;;4990982;28;20046;-71
2023/01/10 10:37:53;;;;;;;57.65;12.85;;;7.10;99.90;;;;;;4991641;28;20120;-70
2023/01/10 10:40:31;;;;;;;52.47;13.20;;;7.10;99.90;;;;;;4927672;29;20505;-69
2023/01/10 10:43:03;;;;;;;46.15;13.02;;;7.20;99.90;;;;;;4910296;29;20059;-70
2023/01/10 10:45:38;;;;;;;55.83;13.63;;;7.20;99.90;;;;;;4960965;28;20038;-71
2023/01/10 10:48:37;;;;;;;54.05;14.07;;;7.10;99.90;;;;;;5006579;28;20400;-70
2023/01/10 10:51:46;;;;;;;56.97;14.80;;;7.20;99.90;;;;;;5001677;28;20046;-71
2023/01/10 10:54:13;;;;;;;57.78;13.85;;;7.00;99.90;;;;;;4991812;28;20072;-69
2023/01/10 10:56:39;;;;;;;54.10;13.27;;;7.10;99.90;;;;;;5005290;28;20080;-69
2023/01/10 10:59:05;;;;;;;54.75;13.85;;;7.00;99.90;;;;;;4986135;28;21855;-70
2023/01/10 11:01:31;;;;;;;61.33;14.68;;;7.20;99.90;;;;;;4987697;28;20121;-69
2023/01/10 11:04:04;;;;;;;55.80;13.70;;;7.00;99.90;;;;;;4990490;28;20054;-68
2023/01/10 11:06:31;;;;;;;46.72;13.10;;;7.10;99.90;;;;;;5003888;28;20077;-67
2023/01/10 11:09:02;;;;;;;58.17;15.68;;;7.00;99.90;;;;;;4986951;28;20033;-71
2023/01/10 11:11:50;;;;;;;62.40;13.95;;;7.10;99.90;;;;;;4988000;28;20042;-70
2023/01/10 11:14:44;;;;;;;50.45;11.60;;;7.00;99.90;;;;;;4984638;28;20046;-70
2023/01/10 11:17:40;;;;;;;51.60;12.55;;;7.10;99.90;;;;;;4991501;28;20066;-71
2023/01/10 11:20:14;;;;;;;49.00;10.68;;;7.00;99.90;;;;;;4975927;28;20058;-72
2023/01/10 11:22:49;;;;;;;48.83;9.95;;;7.10;99.90;;;;;;4990132;28;20473;-71
2023/01/10 11:25:18;;;;;;;50.95;10.30;;;7.00;99.90;;;;;;4993084;28;20041;-68
2023/01/10 11:27:50;;;;;;;59.70;11.30;;;7.00;99.90;;;;;;4993703;28;20050;-70
2023/01/10 11:30:22;;;;;;;47.17;10.13;;;7.00;99.90;;;;;;4994264;28;20041;-69
2023/01/10 11:33:00;;;;;;;48.55;9.80;;;7.20;99.90;;;;;;5000862;28;20052;-69
2023/01/10 11:35:32;;;;;;;48.40;9.65;;;7.00;99.90;;;;;;4995301;28;20041;-72
2023/01/10 11:38:03;;;;;;;48.78;9.88;;;7.00;99.90;;;;;;4986194;28;20046;-72
2023/01/10 11:40:36;;;;;;;54.45;9.07;;;7.10;99.90;;;;;;4989629;28;20030;-71
2023/01/10 11:43:32;;;;;;;44.38;9.95;;;6.90;99.90;;;;;;4987137;28;20096;-73
2023/01/10 11:46:05;;;;;;;46.20;9.85;;;6.90;99.90;;;;;;4994071;28;20472;-72
2023/01/10 11:48:49;;;;;;;41.20;9.10;;;7.00;99.90;;;;;;4999460;28;20042;-69
2023/01/10 11:51:25;;;;;;;42.85;9.02;;;7.00;99.90;;;;;;4988376;28;20037;-72
2023/01/10 11:54:16;;;;;;;45.08;8.88;;;7.00;99.90;;;;;;4987970;28;20519;-73
2023/01/10 11:56:53;;;;;;;56.33;10.25;;;7.00;99.90;;;;;;4990501;28;20042;-71
2023/01/10 11:59:19;;;;;;;49.90;9.07;;;6.90;99.90;;;;;;5007062;28;20382;-73
2023/01/10 12:01:53;;;;;;;41.53;8.73;;;6.90;99.90;;;;;;4992949;28;20048;-72
2023/01/10 12:04:20;;;;;;;46.17;8.20;;;6.90;99.90;;;;;;4997098;28;20500;-70
2023/01/10 12:06:49;;;;;;;44.85;8.35;;;6.90;99.90;;;;;;4989004;28;20132;-75
2023/01/10 12:09:41;;;;;;;45.75;9.30;;;6.90;99.90;;;;;;4974998;28;20038;-75
2023/01/10 12:12:24;;;;;;;42.13;7.63;;;6.90;99.90;;;;;;4980940;28;20062;-70
2023/01/10 12:14:51;;;;;;;54.15;8.65;;;6.80;99.90;;;;;;4990551;28;20112;-71
2023/01/10 12:17:20;;;;;;;45.35;7.75;;;6.90;99.90;;;;;;4990462;28;20088;-73
2023/01/10 12:19:46;;;;;;;43.88;8.38;;;6.80;99.90;;;;;;4988049;28;20042;-72
2023/01/10 12:22:14;;;;;;;46.65;7.82;;;6.80;99.90;;;;;;4988555;28;20488;-73
2023/01/10 12:24:43;;;;;;;45.08;7.60;;;6.80;99.90;;;;;;4986402;28;20443;-72
2023/01/10 12:27:15;;;;;;;47.20;8.27;;;6.80;99.90;;;;;;4990928;28;20050;-72
2023/01/10 12:30:11;;;;;;;44.50;7.40;;;6.90;99.90;;;;;;5009133;28;20045;-73
2023/01/10 12:32:50;;;;;;;46.20;7.20;;;6.70;99.90;;;;;;4985512;28;20050;-70
2023/01/10 12:35:23;;;;;;;44.95;7.32;;;6.80;99.90;;;;;;4987832;28;20468;-70
2023/01/10 12:38:06;;;;;;;39.20;7.93;;;6.80;99.90;;;;;;4987683;28;20048;-72
2023/01/10 12:40:54;;;;;;;43.35;7.90;;;6.80;99.90;;;;;;4989838;28;20046;-72
2023/01/10 12:46:49;;;;;;;52.25;8.00;;;6.70;99.90;;;;;;4983834;28;20048;-74
2023/01/10 12:49:23;;;;;;;48.30;8.27;;;6.70;99.90;;;;;;4987403;28;20045;-71
2023/01/10 12:51:53;;;;;;;40.58;6.88;;;6.80;99.90;;;;;;5003662;28;20466;-72
2023/01/10 12:54:25;;;;;;;46.15;8.10;;;6.70;99.90;;;;;;4987861;28;20548;-72
2023/01/10 12:56:51;;;;;;;45.53;7.18;;;6.80;99.90;;;;;;4997797;28;20536;-68
2023/01/10 12:59:24;;;;;;;38.53;7.38;;;6.70;99.90;;;;;;4992373;28;20378;-72
2023/01/10 13:02:00;;;;;;;46.67;7.32;;;6.70;99.90;;;;;;4990930;28;20116;-69
2023/01/10 13:04:28;;;;;;;45.60;5.95;;;6.70;99.90;;;;;;5003910;28;20046;-70
2023/01/10 13:06:55;;;;;;;45.50;7.72;;;6.70;99.90;;;;;;4989859;28;20053;-74
2023/01/10 13:09:22;;;;;;;42.00;6.90;;;6.80;99.90;;;;;;4995035;28;20045;-70
2023/01/10 13:11:58;;;;;;;40.75;6.63;;;6.60;99.90;;;;;;4989005;28;20477;-69